Disclaimer

Please do not use the information listed here in-flight or in-navigation, as they are not provided to us by the airports but are provided by volunteers, so they might be outdated.

Search


Regions


Airport information page

Radio informations:
Tower (TWR) - 118.3 MHz
Ground (GND) - 134.6 MHz
DEP - 128.5 MHz
Automatic Terminal Information Service (ATIS) - 230.1 MHz
Approach (APP) - 125.8 MHz

Airport informations:
Latitude: 05° 27' 57.30" N
Longitude: 100° 23' 28.20" E
Elevation: 11 feet - 3 meters
Operating hours: Remarks
Operating agency: Military
Timezone: UTC+8
Fuel: Jet A1+, Jet A1 with icing inhibitor.

100/130 MIL Spec, low lead, aviation gasoline (BLUE)

Runway information:
18/36 - 8000 x 150 feet< - >2438 x 46 meters

Recent METARs:
WMKB 201600Z 08004KT 7000 -RA FEW010 SCT024 BKN260 25/24 Q1012 NOSIG
WMKB 201700Z VRB03KT 7000 -RA FEW010 SCT140 BKN260 25/24 Q1011 NOSIG
WMKB 201700Z VRB03KT 7000 -RA FEW010 SCT140 BKN260 25/24 Q1011 NOSIG

Airport on the map: